Time;durP1;ratioP1;P1;durP2;ratioP2;P2;SDS_P1;SDS_P2;PMS_P1;PMS_P2;Temp;Humidity;BMP_temperature;BMP_pressure;BME280_temperature;BME280_humidity;BME280_pressure;Samples;Min_cycle;Max_cycle;Signal;HPM_P1;HPM_P2
2021/01/30 00:01:26;;;;;;;2.08;1.48;;;3.80;68.80;;;;;;5008766;28;20025;-73
2021/01/30 00:03:51;;;;;;;2.50;1.20;;;3.80;68.80;;;;;;4996020;28;20045;-73
2021/01/30 00:06:17;;;;;;;1.70;1.17;;;3.90;68.90;;;;;;5013822;28;20164;-74
2021/01/30 00:08:42;;;;;;;1.95;1.60;;;3.80;68.80;;;;;;5002256;28;20442;-72
2021/01/30 00:11:11;;;;;;;1.73;1.10;;;3.80;68.90;;;;;;5009617;28;20510;-73
2021/01/30 00:13:36;;;;;;;1.45;1.05;;;3.80;68.90;;;;;;5004779;28;20061;-73
2021/01/30 00:16:04;;;;;;;1.23;1.00;;;3.70;68.90;;;;;;5013677;28;20053;-73
2021/01/30 00:18:29;;;;;;;1.65;1.13;;;3.80;68.90;;;;;;5003301;28;20028;-74
2021/01/30 00:20:55;;;;;;;1.67;1.13;;;3.80;68.90;;;;;;5004945;28;20029;-73
2021/01/30 00:23:20;;;;;;;1.77;1.42;;;3.80;68.90;;;;;;5014499;28;20438;-73
2021/01/30 00:25:46;;;;;;;1.85;1.45;;;3.80;68.80;;;;;;5005787;28;20038;-73
2021/01/30 00:28:11;;;;;;;1.80;1.23;;;3.80;68.80;;;;;;5010658;28;20042;-72
2021/01/30 00:30:37;;;;;;;1.73;1.00;;;3.80;68.80;;;;;;5011191;28;20084;-73
2021/01/30 00:33:04;;;;;;;1.25;1.10;;;3.80;68.80;;;;;;4998101;28;20036;-72
2021/01/30 00:35:34;;;;;;;2.13;1.30;;;3.70;68.80;;;;;;5009716;28;20076;-73
2021/01/30 00:37:59;;;;;;;1.90;1.20;;;3.80;68.80;;;;;;5003101;28;20576;-74
2021/01/30 00:40:26;;;;;;;1.45;1.13;;;3.70;68.80;;;;;;5010961;28;20060;-73
2021/01/30 00:42:52;;;;;;;1.48;1.20;;;3.70;68.90;;;;;;5011629;28;20562;-73
2021/01/30 00:45:22;;;;;;;1.83;1.40;;;3.80;68.90;;;;;;5009977;28;20626;-74
2021/01/30 00:47:48;;;;;;;1.85;1.52;;;3.70;68.90;;;;;;4998978;28;20033;-74
2021/01/30 00:50:16;;;;;;;1.95;1.50;;;3.70;68.90;;;;;;5009938;28;20029;-73
2021/01/30 00:52:44;;;;;;;2.15;1.23;;;3.70;68.90;;;;;;5010078;28;20523;-73
2021/01/30 00:55:11;;;;;;;2.15;1.80;;;3.70;69.00;;;;;;5002207;28;20029;-73
2021/01/30 00:57:36;;;;;;;1.65;1.27;;;3.70;69.00;;;;;;5008598;28;20057;-73
2021/01/30 01:00:09;;;;;;;2.67;1.77;;;3.60;69.00;;;;;;5012846;28;20084;-73
2021/01/30 01:02:36;;;;;;;1.95;1.60;;;3.70;69.10;;;;;;5002996;28;20041;-72
2021/01/30 01:05:02;;;;;;;2.03;1.73;;;3.70;69.10;;;;;;5004307;28;20044;-73
2021/01/30 01:07:27;;;;;;;1.80;1.45;;;3.70;69.10;;;;;;5009651;28;20075;-73
2021/01/30 01:09:53;;;;;;;2.72;1.70;;;3.70;69.10;;;;;;5006101;28;20026;-74
2021/01/30 01:12:19;;;;;;;2.00;1.67;;;3.70;69.10;;;;;;5006481;28;20036;-71
2021/01/30 01:14:44;;;;;;;1.90;1.70;;;3.70;69.20;;;;;;5010936;28;20563;-73
2021/01/30 01:17:09;;;;;;;2.22;1.83;;;3.70;69.30;;;;;;4998396;28;20030;-73
2021/01/30 01:19:35;;;;;;;2.83;2.40;;;3.70;69.30;;;;;;5007853;28;20121;-73
2021/01/30 01:22:00;;;;;;;2.60;2.10;;;3.70;69.40;;;;;;5003285;28;20026;-73
2021/01/30 01:24:26;;;;;;;2.13;1.65;;;3.70;69.30;;;;;;5006513;28;20529;-74
2021/01/30 01:26:52;;;;;;;2.80;2.15;;;3.70;69.40;;;;;;5004873;28;20029;-73
2021/01/30 01:29:20;;;;;;;2.90;2.28;;;3.70;69.40;;;;;;5009764;28;20029;-74
2021/01/30 01:31:53;;;;;;;2.25;1.95;;;3.80;69.50;;;;;;5011691;28;20728;-74
2021/01/30 01:34:21;;;;;;;2.58;2.13;;;3.80;69.50;;;;;;5011576;28;20136;-73
2021/01/30 01:36:56;;;;;;;4.32;2.50;;;3.70;69.40;;;;;;5011754;28;20033;-74
2021/01/30 01:39:21;;;;;;;2.80;2.38;;;3.80;69.40;;;;;;5012870;28;20156;-73
2021/01/30 01:41:56;;;;;;;2.53;2.10;;;3.80;69.40;;;;;;5013661;28;20029;-73
2021/01/30 01:44:21;;;;;;;3.10;2.30;;;3.80;69.40;;;;;;5014999;28;20182;-74
2021/01/30 01:46:47;;;;;;;2.65;2.28;;;3.90;69.50;;;;;;5016340;28;20122;-73
2021/01/30 01:49:16;;;;;;;3.13;2.47;;;3.80;69.40;;;;;;5006978;28;20443;-73
2021/01/30 01:51:48;;;;;;;3.05;2.58;;;3.90;69.50;;;;;;5013168;28;20048;-75
2021/01/30 01:54:20;;;;;;;3.42;2.65;;;3.80;69.40;;;;;;5005168;28;20431;-73
2021/01/30 01:56:51;;;;;;;2.97;2.67;;;3.80;69.40;;;;;;5012926;28;20161;-73
2021/01/30 01:59:17;;;;;;;;;;;3.90;69.50;;;;;;5007772;28;20398;-73
2021/01/30 02:01:44;;;;;;;2.90;2.30;;;3.90;69.70;;;;;;5006824;28;20389;-73
2021/01/30 02:04:16;;;;;;;3.53;2.75;;;3.90;69.30;;;;;;5010964;28;20052;-73
2021/01/30 02:06:44;;;;;;;4.07;3.40;;;4.00;69.40;;;;;;5014086;28;20586;-72
2021/01/30 02:09:14;;;;;;;2.92;2.60;;;3.90;69.40;;;;;;5006087;28;20050;-74
2021/01/30 02:11:41;;;;;;;3.17;2.47;;;3.90;69.40;;;;;;5027125;28;20026;-74
2021/01/30 02:14:09;;;;;;;3.17;2.72;;;3.90;69.50;;;;;;5022818;28;20025;-73
2021/01/30 02:16:59;;;;;;;3.17;2.50;;;3.90;69.50;;;;;;5029263;28;20053;-73
2021/01/30 02:20:12;;;;;;;2.53;2.00;;;3.90;69.70;;;;;;5026834;28;20112;-72
2021/01/30 02:23:08;;;;;;;3.47;2.72;;;3.90;69.70;;;;;;5026883;28;20674;-73
2021/01/30 02:25:56;;;;;;;3.40;2.63;;;3.90;69.60;;;;;;5030974;28;20036;-73
2021/01/30 02:28:50;;;;;;;3.78;2.92;;;3.90;69.60;;;;;;5030881;28;20424;-73
2021/01/30 02:31:42;;;;;;;3.20;2.88;;;4.00;69.70;;;;;;4994743;28;20044;-73
2021/01/30 02:34:37;;;;;;;3.47;2.70;;;3.90;69.70;;;;;;5020971;28;20052;-73
2021/01/30 02:37:15;;;;;;;3.38;2.83;;;3.90;69.70;;;;;;5024131;28;20033;-73
2021/01/30 02:39:53;;;;;;;3.22;2.90;;;3.90;69.60;;;;;;5029196;28;20392;-73
2021/01/30 02:42:24;;;;;;;3.42;3.13;;;4.00;69.60;;;;;;5030739;28;20028;-73
2021/01/30 02:45:01;;;;;;;3.58;3.13;;;4.00;69.60;;;;;;5030684;28;20029;-73
2021/01/30 02:47:32;;;;;;;3.20;2.63;;;4.00;69.60;;;;;;5018607;28;20025;-72
2021/01/30 02:50:11;;;;;;;4.32;3.55;;;3.90;69.60;;;;;;5030594;28;20021;-73
2021/01/30 02:52:39;;;;;;;4.05;3.60;;;4.00;69.60;;;;;;5028960;28;20080;-73
2021/01/30 02:55:08;;;;;;;4.25;3.38;;;4.00;69.60;;;;;;5030502;28;20044;-73
2021/01/30 02:57:36;;;;;;;3.92;3.40;;;4.00;69.50;;;;;;5030016;28;20022;-70
2021/01/30 03:00:06;;;;;;;4.25;3.63;;;4.00;69.50;;;;;;5029319;28;20026;-72
2021/01/30 03:02:31;;;;;;;4.35;3.60;;;4.00;69.50;;;;;;5027349;28;20033;-72
2021/01/30 03:05:00;;;;;;;4.50;3.50;;;3.90;69.40;;;;;;5030259;28;20079;-73
2021/01/30 03:07:39;;;;;;;5.50;3.90;;;4.00;69.50;;;;;;5029457;28;20570;-75
2021/01/30 03:10:21;;;;;;;4.30;3.53;;;4.00;69.40;;;;;;5017273;28;20083;-73
2021/01/30 03:12:55;;;;;;;4.38;3.78;;;3.90;69.20;;;;;;5025031;28;20037;-73
2021/01/30 03:15:34;;;;;;;4.80;3.65;;;3.90;69.00;;;;;;5023414;28;20395;-71
2021/01/30 03:18:03;;;;;;;4.90;3.70;;;3.90;68.90;;;;;;5022520;28;20030;-73
2021/01/30 03:20:31;;;;;;;4.50;3.42;;;3.90;68.90;;;;;;5027277;28;20029;-73
2021/01/30 03:22:59;;;;;;;4.43;3.60;;;3.90;68.90;;;;;;5029177;28;20049;-73
2021/01/30 03:25:27;;;;;;;5.68;3.95;;;3.80;68.90;;;;;;5030205;28;20055;-73
2021/01/30 03:27:55;;;;;;;5.20;4.50;;;3.80;69.00;;;;;;5030162;28;20697;-73
2021/01/30 03:30:22;;;;;;;5.47;4.15;;;3.80;69.10;;;;;;5026679;28;20098;-73
2021/01/30 03:32:47;;;;;;;6.43;4.93;;;3.80;69.10;;;;;;5032893;28;20494;-72
2021/01/30 03:35:13;;;;;;;6.18;4.20;;;3.70;69.10;;;;;;5027501;28;20189;-75
2021/01/30 03:37:39;;;;;;;6.82;5.05;;;3.60;69.10;;;;;;5024517;28;20113;-71
2021/01/30 03:40:06;;;;;;;5.90;4.72;;;3.60;69.20;;;;;;5026821;28;20368;-74
2021/01/30 03:42:32;;;;;;;6.03;4.93;;;3.70;69.30;;;;;;5026432;28;20560;-73
2021/01/30 03:44:57;;;;;;;7.32;5.22;;;3.70;69.30;;;;;;5026867;28;20033;-73
2021/01/30 03:47:23;;;;;;;7.07;5.70;;;3.70;69.30;;;;;;5026402;28;20049;-73
2021/01/30 03:49:49;;;;;;;8.07;6.10;;;3.60;69.20;;;;;;5029764;28;20046;-70
2021/01/30 03:52:15;;;;;;;6.22;4.78;;;3.60;69.20;;;;;;5029814;28;20546;-73
2021/01/30 03:54:40;;;;;;;7.13;5.20;;;3.60;69.30;;;;;;5027558;28;20037;-72
2021/01/30 03:57:06;;;;;;;7.45;5.30;;;3.50;69.30;;;;;;5029809;28;20033;-72
2021/01/30 03:59:32;;;;;;;7.60;5.35;;;3.60;69.40;;;;;;5023499;28;20036;-72
2021/01/30 04:01:57;;;;;;;6.10;4.93;;;3.60;69.40;;;;;;5022315;28;20028;-73
2021/01/30 04:04:23;;;;;;;7.90;6.35;;;3.60;69.40;;;;;;5021976;28;20037;-73
2021/01/30 04:06:51;;;;;;;7.13;5.43;;;3.60;69.40;;;;;;5025545;28;20395;-71
2021/01/30 04:09:18;;;;;;;6.63;5.60;;;3.60;69.30;;;;;;5014959;28;20506;-72
2021/01/30 04:11:45;;;;;;;5.68;4.45;;;3.60;69.20;;;;;;5023226;28;20038;-73
2021/01/30 04:14:10;;;;;;;5.75;4.60;;;3.50;69.70;;;;;;5022813;28;20440;-71
2021/01/30 04:16:36;;;;;;;6.10;4.70;;;3.50;69.10;;;;;;5018859;28;20128;-73
2021/01/30 04:19:02;;;;;;;5.35;4.15;;;3.60;69.10;;;;;;5015915;28;20041;-72
2021/01/30 04:21:28;;;;;;;4.38;3.70;;;3.50;69.10;;;;;;5019328;28;20398;-73
2021/01/30 04:23:54;;;;;;;5.50;3.47;;;3.50;69.10;;;;;;5024601;28;20036;-74
2021/01/30 04:26:20;;;;;;;5.50;4.10;;;3.50;69.10;;;;;;5027756;28;20582;-74
2021/01/30 04:28:50;;;;;;;5.43;3.95;;;3.50;69.00;;;;;;5026106;28;20172;-73
2021/01/30 04:31:15;;;;;;;4.45;3.60;;;3.50;69.00;;;;;;5022938;28;20084;-73
2021/01/30 04:33:41;;;;;;;5.32;4.25;;;3.50;69.00;;;;;;5020200;28;20076;-73
2021/01/30 04:36:07;;;;;;;4.80;3.45;;;3.50;69.00;;;;;;5027049;28;20501;-73
2021/01/30 04:38:32;;;;;;;4.72;4.10;;;3.40;68.90;;;;;;5023864;28;20418;-74
2021/01/30 04:41:18;;;;;;;3.75;3.00;;;3.40;68.90;;;;;;5034565;23;20041;-78
2021/01/30 04:44:15;;;;;;;3.90;3.17;;;3.40;68.90;;;;;;5045522;28;20094;-78
2021/01/30 04:47:00;;;;;;;4.70;3.35;;;3.40;68.90;;;;;;5047861;28;20033;-77
2021/01/30 04:49:44;;;;;;;4.25;3.25;;;3.40;68.80;;;;;;5043286;28;20060;-77
2021/01/30 04:52:31;;;;;;;3.53;2.92;;;3.30;68.70;;;;;;5033662;28;20032;-78
2021/01/30 04:55:20;;;;;;;3.83;3.08;;;3.30;68.70;;;;;;5036875;28;20478;-78
2021/01/30 04:58:01;;;;;;;3.70;3.08;;;3.20;69.20;;;;;;5043241;28;20037;-78
2021/01/30 05:00:51;;;;;;;4.50;3.60;;;3.20;68.70;;;;;;5041534;28;20447;-77
2021/01/30 05:03:35;;;;;;;3.75;2.92;;;3.20;68.70;;;;;;5044121;28;20406;-77
2021/01/30 05:06:11;;;;;;;4.57;2.97;;;3.10;68.60;;;;;;5043700;28;20033;-79
2021/01/30 05:08:42;;;;;;;4.80;3.60;;;3.10;68.60;;;;;;5041150;28;20048;-78
2021/01/30 05:11:14;;;;;;;4.00;3.15;;;3.00;68.60;;;;;;5045763;28;20108;-78
2021/01/30 05:13:50;;;;;;;3.65;3.05;;;3.00;68.60;;;;;;5043725;28;20175;-78
2021/01/30 05:16:28;;;;;;;4.40;3.17;;;3.00;68.70;;;;;;5050445;28;20494;-78
2021/01/30 05:19:08;;;;;;;4.47;3.40;;;2.90;68.60;;;;;;5036174;28;20048;-78
2021/01/30 05:21:56;;;;;;;3.55;2.95;;;2.80;68.50;;;;;;5048290;28;20051;-79
2021/01/30 05:24:24;;;;;;;4.38;3.13;;;2.90;68.40;;;;;;5044245;28;20575;-79
2021/01/30 05:27:03;;;;;;;4.55;3.22;;;2.80;68.20;;;;;;5048302;28;20033;-78
2021/01/30 05:29:52;;;;;;;5.90;4.07;;;2.80;68.20;;;;;;5048128;28;20029;-78
2021/01/30 05:32:29;;;;;;;4.78;3.25;;;2.70;68.10;;;;;;5046167;28;20029;-79
2021/01/30 05:35:01;;;;;;;4.95;3.15;;;2.60;68.00;;;;;;5048055;28;20029;-78
2021/01/30 05:37:52;;;;;;;5.40;3.53;;;2.60;68.00;;;;;;5046255;28;20025;-78
2021/01/30 05:40:31;;;;;;;3.92;2.80;;;2.50;67.90;;;;;;5042060;28;20414;-79
2021/01/30 05:43:16;;;;;;;3.72;2.83;;;2.40;67.80;;;;;;5045704;28;20040;-79
2021/01/30 05:45:47;;;;;;;4.30;2.95;;;2.30;67.80;;;;;;5049820;28;20025;-78
2021/01/30 05:48:16;;;;;;;4.85;3.30;;;2.30;67.80;;;;;;5046134;28;20166;-78
2021/01/30 05:50:45;;;;;;;4.50;3.22;;;2.20;67.70;;;;;;5051333;28;20517;-78
2021/01/30 05:53:16;;;;;;;4.82;3.00;;;2.10;67.70;;;;;;5049279;28;20509;-78
2021/01/30 05:55:42;;;;;;;5.65;4.07;;;2.10;67.80;;;;;;5051403;28;20071;-79
2021/01/30 05:58:16;;;;;;;4.38;2.75;;;2.00;67.80;;;;;;5051635;28;20497;-79
2021/01/30 06:00:42;;;;;;;6.10;4.03;;;1.90;67.80;;;;;;5051200;28;20033;-79
2021/01/30 06:03:10;;;;;;;4.38;2.95;;;1.80;67.80;;;;;;5044673;28;20064;-79
2021/01/30 06:05:44;;;;;;;4.78;3.45;;;1.90;67.80;;;;;;5049351;28;20037;-79
2021/01/30 06:08:15;;;;;;;5.25;3.00;;;1.80;67.70;;;;;;5049736;28;20033;-79
2021/01/30 06:10:42;;;;;;;4.00;2.72;;;1.70;67.50;;;;;;5051159;28;20025;-78
2021/01/30 06:13:25;;;;;;;5.35;3.05;;;1.60;67.50;;;;;;5037453;28;20033;-79
2021/01/30 06:15:56;;;;;;;4.55;3.22;;;1.60;67.50;;;;;;5049986;28;20048;-79
2021/01/30 06:18:39;;;;;;;6.70;3.58;;;1.50;67.60;;;;;;5035477;28;20040;-78
2021/01/30 06:21:18;;;;;;;4.75;3.10;;;1.40;67.80;;;;;;5050285;28;20517;-79
2021/01/30 06:24:03;;;;;;;7.13;3.88;;;1.40;67.80;;;;;;5048568;28;20041;-79
2021/01/30 06:26:29;;;;;;;5.75;3.72;;;1.30;67.70;;;;;;5047838;28;20058;-78
2021/01/30 06:29:01;;;;;;;6.60;3.78;;;1.30;67.80;;;;;;5051673;28;20029;-79
2021/01/30 06:31:33;;;;;;;5.25;3.45;;;1.30;67.80;;;;;;5043123;28;20037;-79
2021/01/30 06:34:15;;;;;;;6.28;3.45;;;1.20;68.30;;;;;;5051354;28;20040;-78
2021/01/30 06:36:48;;;;;;;4.35;2.90;;;1.10;67.70;;;;;;5051211;28;20047;-79
2021/01/30 06:39:18;;;;;;;4.97;3.17;;;1.10;67.70;;;;;;5051701;28;20029;-79
2021/01/30 06:41:52;;;;;;;4.57;3.08;;;1.00;67.60;;;;;;5052590;28;20041;-78
2021/01/30 06:44:26;;;;;;;4.53;2.72;;;1.00;67.50;;;;;;5050002;28;20497;-78
2021/01/30 06:47:17;;;;;;;5.90;3.55;;;1.00;67.60;;;;;;5047438;28;20371;-78
2021/01/30 06:49:44;;;;;;;5.57;3.08;;;0.90;67.60;;;;;;5049544;28;20144;-79
2021/01/30 06:52:30;;;;;;;5.25;3.40;;;0.80;67.70;;;;;;5049766;28;20029;-79
2021/01/30 06:55:05;;;;;;;5.40;3.40;;;0.80;67.70;;;;;;5050231;28;20486;-78
2021/01/30 06:57:47;;;;;;;5.32;3.47;;;0.70;67.60;;;;;;5035264;28;20025;-78
2021/01/30 07:00:15;;;;;;;4.47;3.30;;;0.70;67.70;;;;;;5037594;28;20580;-78
2021/01/30 07:03:02;;;;;;;5.65;3.63;;;0.60;67.70;;;;;;5048575;28;20089;-78
2021/01/30 07:05:52;;;;;;;5.63;3.10;;;0.60;67.70;;;;;;5038549;28;20053;-77
2021/01/30 07:08:52;;;;;;;5.63;3.50;;;0.50;67.70;;;;;;5026212;28;20021;-77
2021/01/30 07:11:18;;;;;;;;;;;0.60;67.70;;;;;;5035339;28;20021;-77
2021/01/30 07:13:52;;;;;;;4.25;2.55;;;0.50;67.70;;;;;;5044158;28;19913;-77
2021/01/30 07:16:21;;;;;;;4.90;3.00;;;0.40;67.50;;;;;;5038563;28;20024;-77
2021/01/30 07:19:15;;;;;;;5.88;3.20;;;0.40;67.50;;;;;;5038518;28;20565;-77
2021/01/30 07:21:52;;;;;;;4.93;2.70;;;0.30;67.40;;;;;;5047107;28;20112;-77
2021/01/30 07:24:37;;;;;;;4.97;3.30;;;0.30;67.40;;;;;;5044367;28;20490;-77
2021/01/30 07:27:24;;;;;;;4.10;2.80;;;0.20;67.40;;;;;;5048081;28;20099;-77
2021/01/30 07:30:10;;;;;;;5.80;2.97;;;0.20;67.40;;;;;;5045608;28;20025;-77
2021/01/30 07:32:46;;;;;;;4.65;3.22;;;0.20;67.40;;;;;;5042064;28;20052;-77
2021/01/30 07:35:32;;;;;;;4.03;2.90;;;0.10;67.40;;;;;;5045135;28;20164;-78
2021/01/30 07:38:18;;;;;;;3.95;2.60;;;0.10;67.30;;;;;;5029482;28;20059;-77
2021/01/30 07:41:21;;;;;;;4.20;2.53;;;0.00;67.20;;;;;;5044223;28;20036;-77
2021/01/30 07:43:56;;;;;;;4.25;2.60;;;-0.10;67.10;;;;;;5022243;28;20068;-78
2021/01/30 07:46:27;;;;;;;4.10;2.55;;;-0.10;67.10;;;;;;5043732;28;20081;-79
2021/01/30 07:48:54;;;;;;;;;;;-0.10;67.10;;;;;;5041013;28;20505;-77
2021/01/30 07:51:28;;;;;;;2.85;1.92;;;-0.20;67.00;;;;;;5044189;28;20306;-77
2021/01/30 07:53:54;;;;;;;5.00;2.58;;;-0.30;66.90;;;;;;5029265;28;20037;-76
2021/01/30 07:56:30;;;;;;;4.55;2.67;;;-0.30;66.90;;;;;;5043982;28;20458;-79
2021/01/30 07:59:49;;;;;;;4.13;2.35;;;-0.40;66.90;;;;;;5042937;28;20065;-78
2021/01/30 08:02:48;;;;;;;4.60;2.78;;;-0.40;67.00;;;;;;4951182;28;20039;-79
2021/01/30 08:05:32;;;;;;;3.65;2.10;;;-0.40;67.10;;;;;;5024065;28;20033;-78
2021/01/30 08:08:15;;;;;;;3.33;2.22;;;-0.50;67.20;;;;;;5028447;28;20104;-78
2021/01/30 08:11:09;;;;;;;3.85;2.28;;;-0.50;67.40;;;;;;5044439;28;20391;-79
2021/01/30 08:13:51;;;;;;;3.88;2.55;;;-0.50;67.50;;;;;;5038229;28;20037;-79
2021/01/30 08:16:44;;;;;;;2.90;2.03;;;-0.60;67.50;;;;;;5031469;28;20035;-77
2021/01/30 08:19:30;;;;;;;4.15;2.17;;;-0.60;67.60;;;;;;5037024;28;20420;-78
2021/01/30 08:22:03;;;;;;;2.58;2.15;;;-0.60;67.80;;;;;;5043655;28;20040;-78
2021/01/30 08:24:38;;;;;;;3.97;2.63;;;-0.60;67.90;;;;;;5041981;28;20120;-78
2021/01/30 08:27:13;;;;;;;3.97;2.40;;;-0.60;68.00;;;;;;5043256;28;20033;-77
2021/01/30 08:29:43;;;;;;;5.10;3.03;;;-0.50;68.20;;;;;;5044280;28;20525;-78
2021/01/30 08:32:23;;;;;;;3.40;2.40;;;-0.50;68.50;;;;;;5032205;28;20576;-77
2021/01/30 08:34:53;;;;;;;;;;;-0.50;69.00;;;;;;5028836;28;20079;-77
2021/01/30 08:37:19;;;;;;;4.03;2.38;;;-0.40;69.10;;;;;;5027327;28;19948;-76
2021/01/30 08:40:13;;;;;;;4.07;2.70;;;-0.30;69.10;;;;;;5017879;28;527235;-76
2021/01/30 08:43:01;;;;;;;4.55;2.72;;;-0.30;69.20;;;;;;5041046;28;20071;-78
2021/01/30 08:45:29;;;;;;;3.75;2.28;;;-0.20;69.40;;;;;;5045954;28;20021;-77
2021/01/30 08:47:55;;;;;;;4.82;2.50;;;-0.10;69.50;;;;;;5044842;28;20053;-78
2021/01/30 08:50:41;;;;;;;3.63;2.55;;;-0.10;69.50;;;;;;5048278;28;20064;-76
2021/01/30 08:53:14;;;;;;;4.72;3.17;;;0.00;69.60;;;;;;5035166;28;20021;-76
2021/01/30 08:55:45;;;;;;;4.18;2.28;;;0.10;69.70;;;;;;5046809;28;20037;-76
2021/01/30 08:58:29;;;;;;;3.78;2.65;;;0.20;69.80;;;;;;5046579;28;20029;-76
2021/01/30 09:00:57;;;;;;;3.90;2.20;;;0.30;69.90;;;;;;5045295;28;20033;-76
2021/01/30 09:03:37;;;;;;;3.95;2.67;;;0.40;69.90;;;;;;5043673;28;20386;-76
2021/01/30 09:06:04;;;;;;;4.30;2.53;;;0.50;70.00;;;;;;5034909;28;20025;-76
2021/01/30 09:08:38;;;;;;;4.15;2.53;;;0.60;70.00;;;;;;5047167;28;20072;-79
2021/01/30 09:11:39;;;;;;;4.28;2.80;;;0.60;70.00;;;;;;5049085;28;20490;-79
2021/01/30 09:14:09;;;;;;;4.10;2.92;;;0.70;70.00;;;;;;5015951;28;20026;-79
2021/01/30 09:16:57;;;;;;;4.37;2.90;;;0.80;70.00;;;;;;5012808;28;20046;-78
2021/01/30 09:19:45;;;;;;;3.92;2.78;;;0.90;70.10;;;;;;5029139;28;20270;-80
2021/01/30 09:22:40;;;;;;;3.50;2.35;;;1.00;70.10;;;;;;5038170;28;20033;-79
2021/01/30 09:25:17;;;;;;;4.22;2.60;;;1.10;70.20;;;;;;5034548;28;20037;-81
2021/01/30 09:28:02;;;;;;;4.35;2.72;;;1.30;71.10;;;;;;5044579;28;20082;-82
2021/01/30 09:30:55;;;;;;;3.85;2.80;;;1.40;71.30;;;;;;5042058;28;20021;-82
2021/01/30 09:33:28;;;;;;;4.15;3.25;;;1.50;70.90;;;;;;5031630;28;20029;-81
2021/01/30 09:36:24;;;;;;;3.88;2.97;;;1.70;70.60;;;;;;5047016;28;20090;-82
2021/01/30 09:38:58;;;;;;;7.85;4.18;;;1.80;70.40;;;;;;5040447;28;20029;-82
2021/01/30 09:41:33;;;;;;;6.78;4.63;;;1.90;70.10;;;;;;5041959;28;20574;-82
2021/01/30 09:44:02;;;;;;;7.97;4.78;;;1.90;69.90;;;;;;5029733;28;20033;-81
2021/01/30 09:46:34;;;;;;;8.80;5.57;;;2.00;69.80;;;;;;5034062;28;20033;-83
2021/01/30 09:49:05;;;;;;;6.15;4.07;;;2.00;69.80;;;;;;5044438;28;20083;-82
2021/01/30 09:51:30;;;;;;;28.30;15.07;;;2.10;69.80;;;;;;5048920;28;20067;-82
2021/01/30 09:53:59;;;;;;;11.05;7.35;;;2.20;69.80;;;;;;5037750;28;20065;-79
2021/01/30 09:56:25;;;;;;;7.15;5.30;;;2.20;69.70;;;;;;5027393;28;20029;-80
2021/01/30 09:58:55;;;;;;;6.18;4.50;;;2.30;69.70;;;;;;5034682;28;20128;-79
2021/01/30 10:01:39;;;;;;;7.07;3.95;;;2.20;69.70;;;;;;5029047;28;20049;-79
2021/01/30 10:04:24;;;;;;;3.63;2.97;;;2.40;69.80;;;;;;5013873;28;20402;-79
2021/01/30 10:06:53;;;;;;;3.72;2.80;;;2.50;69.80;;;;;;5031052;28;20482;-78
2021/01/30 10:09:24;;;;;;;3.50;2.78;;;2.50;69.70;;;;;;5023410;28;20044;-79
2021/01/30 10:11:55;;;;;;;3.67;2.30;;;2.50;69.80;;;;;;5032444;28;20045;-79
2021/01/30 10:14:24;;;;;;;3.75;2.38;;;2.60;69.90;;;;;;5024912;28;20091;-79
2021/01/30 10:17:03;;;;;;;2.97;2.50;;;2.60;70.00;;;;;;5031282;28;20502;-78
2021/01/30 10:19:34;;;;;;;3.50;2.65;;;2.70;70.00;;;;;;5028596;28;20059;-78
2021/01/30 10:22:21;;;;;;;3.45;2.67;;;2.80;70.10;;;;;;5020920;28;20033;-78
2021/01/30 10:24:59;;;;;;;2.83;2.28;;;2.80;70.00;;;;;;5031665;28;20041;-78
2021/01/30 10:27:26;;;;;;;3.08;2.40;;;2.90;70.00;;;;;;5001052;28;20963;-78
2021/01/30 10:29:55;;;;;;;3.28;2.22;;;3.00;70.10;;;;;;5015502;28;20025;-78
2021/01/30 10:32:35;;;;;;;3.10;2.30;;;3.10;70.20;;;;;;5024506;28;20029;-81
2021/01/30 10:35:05;;;;;;;2.57;2.20;;;3.10;70.20;;;;;;5036434;28;20049;-82
2021/01/30 10:37:45;;;;;;;3.85;2.63;;;3.20;70.20;;;;;;5021462;28;20033;-81
2021/01/30 10:40:22;;;;;;;3.67;2.92;;;3.30;70.20;;;;;;5028688;28;20112;-81
2021/01/30 10:42:48;;;;;;;2.92;2.45;;;3.40;70.20;;;;;;5054780;22;20102;-77
2021/01/30 10:45:26;;;;;;;3.90;2.58;;;3.40;70.10;;;;;;5018304;28;20032;-76
2021/01/30 10:48:00;;;;;;;3.47;2.80;;;3.50;70.00;;;;;;5031182;28;20498;-75
2021/01/30 10:50:47;;;;;;;3.55;3.03;;;3.60;69.90;;;;;;5021503;28;20053;-74
2021/01/30 10:53:37;;;;;;;3.17;2.30;;;3.60;69.60;;;;;;5002721;28;20033;-74
2021/01/30 10:56:24;;;;;;;3.75;2.80;;;3.70;69.40;;;;;;5019045;28;20536;-75
2021/01/30 10:58:52;;;;;;;3.20;2.63;;;3.70;69.30;;;;;;5029210;28;20038;-75
2021/01/30 11:01:17;;;;;;;2.85;2.20;;;3.70;69.40;;;;;;5015926;28;20056;-74
2021/01/30 11:03:55;;;;;;;3.10;2.38;;;3.80;69.40;;;;;;5031962;28;20529;-76
2021/01/30 11:06:45;;;;;;;2.70;2.30;;;3.80;69.20;;;;;;5024847;28;20073;-75
2021/01/30 11:09:33;;;;;;;2.63;2.40;;;3.90;69.10;;;;;;5030854;28;20033;-77
2021/01/30 11:12:14;;;;;;;3.58;2.83;;;3.90;69.20;;;;;;5021263;28;20170;-78
2021/01/30 11:14:40;;;;;;;3.20;2.42;;;3.90;69.30;;;;;;4998882;28;20037;-78
2021/01/30 11:17:23;;;;;;;4.03;3.08;;;3.90;69.40;;;;;;5030891;28;20752;-78
2021/01/30 11:19:48;;;;;;;3.97;3.55;;;4.00;69.30;;;;;;5030386;28;20036;-77
2021/01/30 11:22:19;;;;;;;3.50;3.05;;;4.00;69.40;;;;;;5032005;28;20036;-77
2021/01/30 11:25:05;;;;;;;3.65;3.17;;;4.00;69.40;;;;;;5030639;28;20401;-79
2021/01/30 11:27:33;;;;;;;4.43;2.80;;;4.00;69.30;;;;;;5017700;28;20505;-79
2021/01/30 11:30:20;;;;;;;3.70;3.00;;;4.00;69.30;;;;;;5026049;28;20448;-78
2021/01/30 11:33:02;;;;;;;3.72;2.97;;;4.10;68.80;;;;;;5022222;28;20037;-79
2021/01/30 11:35:34;;;;;;;4.05;3.42;;;4.10;68.60;;;;;;5011851;28;20083;-78
2021/01/30 11:38:18;;;;;;;5.60;3.45;;;4.10;68.60;;;;;;5019078;28;20033;-78
2021/01/30 11:40:45;;;;;;;4.50;3.58;;;4.10;68.40;;;;;;5019186;28;20108;-79
2021/01/30 11:43:13;;;;;;;5.95;3.40;;;4.10;68.40;;;;;;5020315;28;20398;-78
2021/01/30 11:45:39;;;;;;;5.10;3.13;;;4.00;68.20;;;;;;5014850;28;20148;-80
2021/01/30 11:48:05;;;;;;;3.88;3.08;;;4.00;68.70;;;;;;5022507;28;20519;-78
2021/01/30 11:50:31;;;;;;;5.13;3.50;;;4.00;68.20;;;;;;5014581;28;20040;-80
2021/01/30 11:53:12;;;;;;;3.80;2.67;;;4.00;68.20;;;;;;5025720;28;20117;-78
2021/01/30 11:55:39;;;;;;;3.42;2.72;;;3.90;68.00;;;;;;5011462;28;20123;-77
2021/01/30 11:58:05;;;;;;;3.83;2.97;;;3.90;68.10;;;;;;5024618;28;20044;-78
2021/01/30 12:00:31;;;;;;;3.85;2.92;;;3.90;68.20;;;;;;5016900;28;20036;-78
2021/01/30 12:02:57;;;;;;;3.17;2.72;;;3.90;68.30;;;;;;5024032;28;20032;-74
2021/01/30 12:05:23;;;;;;;2.72;2.22;;;4.10;68.50;;;;;;5027135;28;20021;-75
2021/01/30 12:07:48;;;;;;;3.33;2.60;;;3.80;68.30;;;;;;5032821;28;20028;-73
2021/01/30 12:10:14;;;;;;;3.25;2.28;;;3.80;68.30;;;;;;5032497;28;20496;-74
2021/01/30 12:12:40;;;;;;;2.83;2.40;;;3.80;68.20;;;;;;5009508;28;20044;-76
2021/01/30 12:15:07;;;;;;;4.35;3.33;;;3.80;68.20;;;;;;5031389;28;20498;-73
2021/01/30 12:17:38;;;;;;;4.55;2.55;;;3.80;68.20;;;;;;5024732;28;20494;-74
2021/01/30 12:20:07;;;;;;;3.78;2.65;;;3.80;68.20;;;;;;5030645;28;20029;-75
2021/01/30 12:22:33;;;;;;;3.47;2.90;;;3.70;68.30;;;;;;5022556;28;20146;-79
2021/01/30 12:24:58;;;;;;;3.38;2.65;;;3.70;68.30;;;;;;5020330;28;20104;-75
2021/01/30 12:27:25;;;;;;;3.15;2.58;;;3.70;68.20;;;;;;5023139;28;20040;-74
2021/01/30 12:29:50;;;;;;;3.47;2.80;;;3.70;68.30;;;;;;5018273;28;20025;-75
2021/01/30 12:32:16;;;;;;;4.60;3.40;;;3.70;68.30;;;;;;5026174;28;20025;-75
2021/01/30 12:34:43;;;;;;;3.67;3.03;;;3.70;68.50;;;;;;5030862;28;20170;-74
2021/01/30 12:37:08;;;;;;;2.90;2.53;;;3.80;68.60;;;;;;5022652;28;20119;-72
2021/01/30 12:39:34;;;;;;;5.40;3.70;;;3.70;68.60;;;;;;5024829;28;20574;-73
2021/01/30 12:41:59;;;;;;;3.53;2.75;;;3.70;68.70;;;;;;5031311;28;20033;-73
2021/01/30 12:44:25;;;;;;;4.38;3.28;;;3.70;68.70;;;;;;5028377;28;20037;-74
2021/01/30 12:46:52;;;;;;;4.07;3.20;;;3.70;68.60;;;;;;5025486;28;20389;-72
2021/01/30 12:49:18;;;;;;;4.82;3.20;;;3.70;68.60;;;;;;5032171;28;20029;-72
2021/01/30 12:51:43;;;;;;;4.57;3.72;;;3.70;68.60;;;;;;5022258;28;20032;-73
2021/01/30 12:54:09;;;;;;;3.90;3.10;;;3.70;68.70;;;;;;5029022;28;20037;-73
2021/01/30 12:56:36;;;;;;;4.22;3.63;;;3.70;68.70;;;;;;5026549;28;20124;-72
2021/01/30 12:59:02;;;;;;;4.22;3.47;;;3.70;68.60;;;;;;5025388;28;20159;-72
2021/01/30 13:01:30;;;;;;;4.13;3.42;;;3.80;68.60;;;;;;5031286;28;20033;-72
2021/01/30 13:03:56;;;;;;;4.13;3.25;;;3.80;68.50;;;;;;5023362;28;20030;-73
2021/01/30 13:06:21;;;;;;;4.25;3.25;;;3.80;68.40;;;;;;5018207;28;20037;-74
2021/01/30 13:08:47;;;;;;;3.88;3.00;;;3.70;68.30;;;;;;5024877;28;20040;-73
2021/01/30 13:11:14;;;;;;;4.00;3.42;;;3.80;68.30;;;;;;5040098;28;20044;-73
2021/01/30 13:13:40;;;;;;;3.28;2.83;;;3.70;68.20;;;;;;5020337;28;20033;-74
2021/01/30 13:16:06;;;;;;;3.20;2.88;;;3.80;68.20;;;;;;5012448;28;20041;-73
2021/01/30 13:18:32;;;;;;;3.95;3.53;;;3.70;68.20;;;;;;5012714;28;20045;-74
2021/01/30 13:20:57;;;;;;;4.60;3.90;;;3.70;68.20;;;;;;5025083;28;20674;-73
2021/01/30 13:23:23;;;;;;;3.58;2.92;;;3.70;68.20;;;;;;5028612;28;20045;-73
2021/01/30 13:25:49;;;;;;;4.10;3.08;;;3.70;68.20;;;;;;5023552;28;20486;-73
2021/01/30 13:28:14;;;;;;;5.03;3.72;;;3.80;68.30;;;;;;5028336;28;20051;-73
2021/01/30 13:30:40;;;;;;;4.85;3.42;;;3.70;68.30;;;;;;5023195;28;20502;-73